sensor_id;sensor_type;location;lat;lon;timestamp;P1;durP1;ratioP1;P2;durP2;ratioP2
77814;SDS011;67002;52.124;21.210;2023-03-14T00:00:08;5.10;;;3.30;;
77814;SDS011;67002;52.124;21.210;2023-03-14T00:03:02;4.70;;;3.30;;
77814;SDS011;67002;52.124;21.210;2023-03-14T00:05:34;4.60;;;2.80;;
77814;SDS011;67002;52.124;21.210;2023-03-14T00:08:06;6.50;;;3.50;;
77814;SDS011;67002;52.124;21.210;2023-03-14T00:10:38;6.00;;;3.80;;
77814;SDS011;67002;52.124;21.210;2023-03-14T00:13:10;4.50;;;3.00;;
77814;SDS011;67002;52.124;21.210;2023-03-14T00:15:41;5.10;;;3.60;;
77814;SDS011;67002;52.124;21.210;2023-03-14T00:18:13;7.60;;;4.00;;
77814;SDS011;67002;52.124;21.210;2023-03-14T00:20:45;5.30;;;3.20;;
77814;SDS011;67002;52.124;21.210;2023-03-14T00:23:17;4.80;;;3.10;;
77814;SDS011;67002;52.124;21.210;2023-03-14T00:25:49;4.40;;;3.30;;
77814;SDS011;67002;52.124;21.210;2023-03-14T00:28:20;6.30;;;3.80;;
77814;SDS011;67002;52.124;21.210;2023-03-14T00:30:52;5.40;;;3.50;;
77814;SDS011;67002;52.124;21.210;2023-03-14T00:33:25;6.90;;;3.80;;
77814;SDS011;67002;52.124;21.210;2023-03-14T00:35:58;4.90;;;3.60;;
77814;SDS011;67002;52.124;21.210;2023-03-14T00:38:31;6.20;;;3.40;;
77814;SDS011;67002;52.124;21.210;2023-03-14T00:41:04;5.00;;;3.30;;
77814;SDS011;67002;52.124;21.210;2023-03-14T00:43:37;6.30;;;4.00;;
77814;SDS011;67002;52.124;21.210;2023-03-14T00:46:09;4.90;;;3.20;;
77814;SDS011;67002;52.124;21.210;2023-03-14T00:48:42;5.60;;;3.70;;
77814;SDS011;67002;52.124;21.210;2023-03-14T00:51:15;6.40;;;3.90;;
77814;SDS011;67002;52.124;21.210;2023-03-14T00:53:47;4.70;;;3.10;;
77814;SDS011;67002;52.124;21.210;2023-03-14T00:56:19;4.50;;;3.10;;
77814;SDS011;67002;52.124;21.210;2023-03-14T00:58:54;6.30;;;3.50;;
77814;SDS011;67002;52.124;21.210;2023-03-14T01:01:25;6.50;;;3.40;;
77814;SDS011;67002;52.124;21.210;2023-03-14T01:03:57;5.80;;;3.00;;
77814;SDS011;67002;52.124;21.210;2023-03-14T01:06:29;5.40;;;3.80;;
77814;SDS011;67002;52.124;21.210;2023-03-14T01:09:01;5.20;;;3.40;;
77814;SDS011;67002;52.124;21.210;2023-03-14T01:11:34;5.00;;;3.50;;
77814;SDS011;67002;52.124;21.210;2023-03-14T01:14:06;5.70;;;3.70;;
77814;SDS011;67002;52.124;21.210;2023-03-14T01:16:38;5.50;;;3.10;;
77814;SDS011;67002;52.124;21.210;2023-03-14T01:19:10;4.70;;;3.20;;
77814;SDS011;67002;52.124;21.210;2023-03-14T01:21:42;5.00;;;3.00;;
77814;SDS011;67002;52.124;21.210;2023-03-14T01:24:14;4.90;;;3.20;;
77814;SDS011;67002;52.124;21.210;2023-03-14T01:26:46;5.60;;;3.70;;
77814;SDS011;67002;52.124;21.210;2023-03-14T01:29:18;6.00;;;4.00;;
77814;SDS011;67002;52.124;21.210;2023-03-14T01:31:49;8.40;;;4.60;;
77814;SDS011;67002;52.124;21.210;2023-03-14T01:34:21;5.70;;;3.80;;
77814;SDS011;67002;52.124;21.210;2023-03-14T01:36:53;4.20;;;2.90;;
77814;SDS011;67002;52.124;21.210;2023-03-14T01:39:25;4.90;;;3.40;;
77814;SDS011;67002;52.124;21.210;2023-03-14T01:41:58;4.90;;;3.30;;
77814;SDS011;67002;52.124;21.210;2023-03-14T01:47:20;6.00;;;3.60;;
77814;SDS011;67002;52.124;21.210;2023-03-14T01:49:53;4.90;;;2.90;;
77814;SDS011;67002;52.124;21.210;2023-03-14T01:52:29;4.40;;;3.00;;
77814;SDS011;67002;52.124;21.210;2023-03-14T01:55:05;5.70;;;3.10;;
77814;SDS011;67002;52.124;21.210;2023-03-14T01:57:41;4.60;;;3.20;;
77814;SDS011;67002;52.124;21.210;2023-03-14T02:00:16;4.60;;;3.40;;
77814;SDS011;67002;52.124;21.210;2023-03-14T02:02:50;5.60;;;3.20;;
77814;SDS011;67002;52.124;21.210;2023-03-14T02:05:25;4.10;;;3.00;;
77814;SDS011;67002;52.124;21.210;2023-03-14T02:08:03;4.40;;;3.30;;
77814;SDS011;67002;52.124;21.210;2023-03-14T02:10:44;5.20;;;3.30;;
77814;SDS011;67002;52.124;21.210;2023-03-14T02:13:22;3.80;;;3.10;;
77814;SDS011;67002;52.124;21.210;2023-03-14T02:16:12;5.00;;;3.30;;
77814;SDS011;67002;52.124;21.210;2023-03-14T02:18:57;4.10;;;2.90;;
77814;SDS011;67002;52.124;21.210;2023-03-14T02:21:47;5.10;;;3.70;;
77814;SDS011;67002;52.124;21.210;2023-03-14T02:24:27;4.60;;;3.10;;
77814;SDS011;67002;52.124;21.210;2023-03-14T02:27:13;7.50;;;3.20;;
77814;SDS011;67002;52.124;21.210;2023-03-14T02:29:47;5.50;;;3.00;;
77814;SDS011;67002;52.124;21.210;2023-03-14T02:32:21;4.10;;;2.70;;
77814;SDS011;67002;52.124;21.210;2023-03-14T02:34:54;4.70;;;3.00;;
77814;SDS011;67002;52.124;21.210;2023-03-14T02:37:28;3.90;;;2.70;;
77814;SDS011;67002;52.124;21.210;2023-03-14T02:40:03;4.60;;;2.70;;
77814;SDS011;67002;52.124;21.210;2023-03-14T02:42:36;3.90;;;2.70;;
77814;SDS011;67002;52.124;21.210;2023-03-14T02:45:32;4.20;;;2.90;;
77814;SDS011;67002;52.124;21.210;2023-03-14T02:48:07;3.90;;;2.80;;
77814;SDS011;67002;52.124;21.210;2023-03-14T02:50:43;5.20;;;2.60;;
77814;SDS011;67002;52.124;21.210;2023-03-14T02:53:17;4.50;;;2.70;;
77814;SDS011;67002;52.124;21.210;2023-03-14T02:55:51;4.20;;;2.70;;
77814;SDS011;67002;52.124;21.210;2023-03-14T02:58:23;5.10;;;2.90;;
77814;SDS011;67002;52.124;21.210;2023-03-14T03:01:00;5.00;;;2.70;;
77814;SDS011;67002;52.124;21.210;2023-03-14T03:03:32;5.00;;;2.40;;
77814;SDS011;67002;52.124;21.210;2023-03-14T03:06:04;4.60;;;2.20;;
77814;SDS011;67002;52.124;21.210;2023-03-14T03:08:37;4.30;;;2.80;;
77814;SDS011;67002;52.124;21.210;2023-03-14T03:11:09;4.40;;;2.60;;
77814;SDS011;67002;52.124;21.210;2023-03-14T03:13:41;4.20;;;2.80;;
77814;SDS011;67002;52.124;21.210;2023-03-14T03:16:13;5.30;;;2.90;;
77814;SDS011;67002;52.124;21.210;2023-03-14T03:18:45;4.90;;;2.70;;
77814;SDS011;67002;52.124;21.210;2023-03-14T03:21:17;4.20;;;2.60;;
77814;SDS011;67002;52.124;21.210;2023-03-14T03:23:52;3.90;;;2.80;;
77814;SDS011;67002;52.124;21.210;2023-03-14T03:26:24;4.10;;;2.70;;
77814;SDS011;67002;52.124;21.210;2023-03-14T03:28:55;4.40;;;2.70;;
77814;SDS011;67002;52.124;21.210;2023-03-14T03:31:27;4.30;;;2.60;;
77814;SDS011;67002;52.124;21.210;2023-03-14T03:33:59;4.40;;;2.90;;
77814;SDS011;67002;52.124;21.210;2023-03-14T03:36:31;3.90;;;2.40;;
77814;SDS011;67002;52.124;21.210;2023-03-14T03:39:03;4.40;;;2.70;;
77814;SDS011;67002;52.124;21.210;2023-03-14T03:41:35;4.90;;;2.50;;
77814;SDS011;67002;52.124;21.210;2023-03-14T03:44:07;4.90;;;3.20;;
77814;SDS011;67002;52.124;21.210;2023-03-14T03:46:39;3.90;;;2.60;;
77814;SDS011;67002;52.124;21.210;2023-03-14T03:49:11;5.10;;;3.00;;
77814;SDS011;67002;52.124;21.210;2023-03-14T03:51:42;5.70;;;3.30;;
77814;SDS011;67002;52.124;21.210;2023-03-14T03:54:15;5.40;;;3.20;;
77814;SDS011;67002;52.124;21.210;2023-03-14T03:56:46;4.10;;;2.90;;
77814;SDS011;67002;52.124;21.210;2023-03-14T03:59:18;4.60;;;2.70;;
77814;SDS011;67002;52.124;21.210;2023-03-14T04:01:50;3.60;;;2.50;;
77814;SDS011;67002;52.124;21.210;2023-03-14T04:04:22;5.40;;;3.00;;
77814;SDS011;67002;52.124;21.210;2023-03-14T04:06:54;4.70;;;3.30;;
77814;SDS011;67002;52.124;21.210;2023-03-14T04:09:26;4.40;;;2.70;;
77814;SDS011;67002;52.124;21.210;2023-03-14T04:12:24;3.50;;;2.30;;
77814;SDS011;67002;52.124;21.210;2023-03-14T04:15:00;3.80;;;2.60;;
77814;SDS011;67002;52.124;21.210;2023-03-14T04:17:33;5.00;;;2.60;;
77814;SDS011;67002;52.124;21.210;2023-03-14T04:20:06;4.50;;;3.10;;
77814;SDS011;67002;52.124;21.210;2023-03-14T04:22:41;4.90;;;2.90;;
77814;SDS011;67002;52.124;21.210;2023-03-14T04:25:13;6.40;;;3.10;;
77814;SDS011;67002;52.124;21.210;2023-03-14T04:27:50;3.70;;;2.30;;
77814;SDS011;67002;52.124;21.210;2023-03-14T04:30:26;3.10;;;2.10;;
77814;SDS011;67002;52.124;21.210;2023-03-14T04:33:00;4.90;;;3.10;;
77814;SDS011;67002;52.124;21.210;2023-03-14T04:35:35;5.50;;;2.80;;
77814;SDS011;67002;52.124;21.210;2023-03-14T04:38:10;3.80;;;2.70;;
77814;SDS011;67002;52.124;21.210;2023-03-14T04:40:45;3.40;;;2.30;;
77814;SDS011;67002;52.124;21.210;2023-03-14T04:43:18;4.00;;;2.60;;
77814;SDS011;67002;52.124;21.210;2023-03-14T04:45:56;5.90;;;3.00;;
77814;SDS011;67002;52.124;21.210;2023-03-14T04:48:29;6.10;;;3.20;;
77814;SDS011;67002;52.124;21.210;2023-03-14T04:51:02;4.60;;;2.80;;
77814;SDS011;67002;52.124;21.210;2023-03-14T04:53:35;5.10;;;2.80;;
77814;SDS011;67002;52.124;21.210;2023-03-14T04:56:11;6.10;;;3.00;;
77814;SDS011;67002;52.124;21.210;2023-03-14T04:58:45;4.50;;;2.90;;
77814;SDS011;67002;52.124;21.210;2023-03-14T05:01:18;3.90;;;2.80;;
77814;SDS011;67002;52.124;21.210;2023-03-14T05:04:13;4.00;;;2.70;;
77814;SDS011;67002;52.124;21.210;2023-03-14T05:07:05;4.30;;;2.70;;
77814;SDS011;67002;52.124;21.210;2023-03-14T05:09:48;3.80;;;2.90;;
77814;SDS011;67002;52.124;21.210;2023-03-14T05:12:42;4.30;;;2.80;;
77814;SDS011;67002;52.124;21.210;2023-03-14T05:15:34;3.80;;;2.90;;
77814;SDS011;67002;52.124;21.210;2023-03-14T05:18:19;4.90;;;3.10;;
77814;SDS011;67002;52.124;21.210;2023-03-14T05:21:08;6.50;;;3.30;;
77814;SDS011;67002;52.124;21.210;2023-03-14T05:23:58;5.10;;;3.40;;
77814;SDS011;67002;52.124;21.210;2023-03-14T05:26:52;5.50;;;3.20;;
77814;SDS011;67002;52.124;21.210;2023-03-14T05:29:53;6.20;;;3.10;;
77814;SDS011;67002;52.124;21.210;2023-03-14T05:32:43;5.00;;;2.90;;
77814;SDS011;67002;52.124;21.210;2023-03-14T05:35:15;5.50;;;3.40;;
77814;SDS011;67002;52.124;21.210;2023-03-14T05:37:50;4.90;;;3.10;;
77814;SDS011;67002;52.124;21.210;2023-03-14T05:40:45;4.40;;;3.30;;
77814;SDS011;67002;52.124;21.210;2023-03-14T05:43:36;4.50;;;3.00;;
77814;SDS011;67002;52.124;21.210;2023-03-14T05:46:32;4.60;;;2.90;;
77814;SDS011;67002;52.124;21.210;2023-03-14T05:49:30;5.60;;;3.10;;
77814;SDS011;67002;52.124;21.210;2023-03-14T05:52:22;5.40;;;3.30;;
77814;SDS011;67002;52.124;21.210;2023-03-14T05:54:58;4.40;;;2.90;;
77814;SDS011;67002;52.124;21.210;2023-03-14T05:57:41;5.00;;;3.10;;
77814;SDS011;67002;52.124;21.210;2023-03-14T06:00:24;4.50;;;2.90;;
77814;SDS011;67002;52.124;21.210;2023-03-14T06:03:03;5.10;;;3.20;;
77814;SDS011;67002;52.124;21.210;2023-03-14T06:05:36;4.80;;;3.20;;
77814;SDS011;67002;52.124;21.210;2023-03-14T06:08:08;4.80;;;2.90;;
77814;SDS011;67002;52.124;21.210;2023-03-14T06:10:40;5.40;;;2.90;;
77814;SDS011;67002;52.124;21.210;2023-03-14T06:13:12;3.30;;;2.40;;
77814;SDS011;67002;52.124;21.210;2023-03-14T06:15:44;5.60;;;3.40;;
77814;SDS011;67002;52.124;21.210;2023-03-14T06:18:16;4.40;;;3.10;;
77814;SDS011;67002;52.124;21.210;2023-03-14T06:20:49;4.50;;;2.70;;
77814;SDS011;67002;52.124;21.210;2023-03-14T06:23:24;4.60;;;3.10;;
77814;SDS011;67002;52.124;21.210;2023-03-14T06:25:56;4.30;;;2.80;;
77814;SDS011;67002;52.124;21.210;2023-03-14T06:28:28;4.30;;;2.80;;
77814;SDS011;67002;52.124;21.210;2023-03-14T06:31:01;3.60;;;2.70;;
77814;SDS011;67002;52.124;21.210;2023-03-14T06:33:42;4.20;;;2.70;;
77814;SDS011;67002;52.124;21.210;2023-03-14T06:36:14;4.40;;;3.00;;
77814;SDS011;67002;52.124;21.210;2023-03-14T06:38:47;4.80;;;2.60;;
77814;SDS011;67002;52.124;21.210;2023-03-14T06:41:19;4.30;;;3.10;;
77814;SDS011;67002;52.124;21.210;2023-03-14T06:43:52;4.10;;;2.80;;
77814;SDS011;67002;52.124;21.210;2023-03-14T06:46:24;4.00;;;2.80;;
77814;SDS011;67002;52.124;21.210;2023-03-14T06:48:56;4.30;;;2.70;;
77814;SDS011;67002;52.124;21.210;2023-03-14T06:51:28;5.70;;;2.70;;
77814;SDS011;67002;52.124;21.210;2023-03-14T06:54:00;6.30;;;2.60;;
77814;SDS011;67002;52.124;21.210;2023-03-14T06:56:32;3.80;;;2.50;;
77814;SDS011;67002;52.124;21.210;2023-03-14T06:59:04;4.40;;;2.80;;
77814;SDS011;67002;52.124;21.210;2023-03-14T07:01:36;4.50;;;2.90;;
77814;SDS011;67002;52.124;21.210;2023-03-14T07:04:11;4.40;;;2.90;;
77814;SDS011;67002;52.124;21.210;2023-03-14T07:09:16;3.50;;;2.40;;
77814;SDS011;67002;52.124;21.210;2023-03-14T07:11:55;5.10;;;2.60;;
77814;SDS011;67002;52.124;21.210;2023-03-14T07:14:27;3.50;;;2.80;;
77814;SDS011;67002;52.124;21.210;2023-03-14T07:16:59;3.80;;;2.10;;
77814;SDS011;67002;52.124;21.210;2023-03-14T07:19:31;4.80;;;3.70;;
77814;SDS011;67002;52.124;21.210;2023-03-14T07:22:03;5.30;;;3.10;;
77814;SDS011;67002;52.124;21.210;2023-03-14T07:24:34;4.10;;;3.00;;
77814;SDS011;67002;52.124;21.210;2023-03-14T07:27:06;4.10;;;2.50;;
77814;SDS011;67002;52.124;21.210;2023-03-14T07:29:40;3.70;;;2.70;;
77814;SDS011;67002;52.124;21.210;2023-03-14T07:32:12;4.30;;;2.40;;
77814;SDS011;67002;52.124;21.210;2023-03-14T07:34:44;3.90;;;2.20;;
77814;SDS011;67002;52.124;21.210;2023-03-14T07:37:16;4.30;;;3.10;;
77814;SDS011;67002;52.124;21.210;2023-03-14T07:39:48;4.90;;;3.20;;
77814;SDS011;67002;52.124;21.210;2023-03-14T07:42:23;4.40;;;2.70;;
77814;SDS011;67002;52.124;21.210;2023-03-14T07:45:21;5.20;;;2.60;;
77814;SDS011;67002;52.124;21.210;2023-03-14T07:47:53;6.50;;;2.90;;
77814;SDS011;67002;52.124;21.210;2023-03-14T07:50:26;5.00;;;2.60;;
77814;SDS011;67002;52.124;21.210;2023-03-14T07:52:58;4.10;;;2.80;;
77814;SDS011;67002;52.124;21.210;2023-03-14T07:55:29;4.90;;;3.00;;
77814;SDS011;67002;52.124;21.210;2023-03-14T07:58:01;2.90;;;1.90;;
77814;SDS011;67002;52.124;21.210;2023-03-14T08:00:33;4.90;;;2.80;;
77814;SDS011;67002;52.124;21.210;2023-03-14T08:03:05;5.90;;;3.20;;
77814;SDS011;67002;52.124;21.210;2023-03-14T08:05:37;3.70;;;2.50;;
77814;SDS011;67002;52.124;21.210;2023-03-14T08:08:09;5.70;;;2.70;;
77814;SDS011;67002;52.124;21.210;2023-03-14T08:10:41;4.40;;;2.50;;
77814;SDS011;67002;52.124;21.210;2023-03-14T08:13:13;6.30;;;2.80;;
77814;SDS011;67002;52.124;21.210;2023-03-14T08:15:48;4.00;;;2.90;;
77814;SDS011;67002;52.124;21.210;2023-03-14T08:18:20;6.30;;;2.80;;
77814;SDS011;67002;52.124;21.210;2023-03-14T08:20:51;4.20;;;2.20;;
77814;SDS011;67002;52.124;21.210;2023-03-14T08:23:23;3.00;;;2.40;;
77814;SDS011;67002;52.124;21.210;2023-03-14T08:25:55;3.60;;;2.50;;
77814;SDS011;67002;52.124;21.210;2023-03-14T08:28:27;3.80;;;2.70;;
77814;SDS011;67002;52.124;21.210;2023-03-14T08:31:01;4.50;;;2.80;;
77814;SDS011;67002;52.124;21.210;2023-03-14T08:33:33;3.90;;;2.40;;
77814;SDS011;67002;52.124;21.210;2023-03-14T08:36:05;4.20;;;2.60;;
77814;SDS011;67002;52.124;21.210;2023-03-14T08:38:38;3.60;;;2.60;;
77814;SDS011;67002;52.124;21.210;2023-03-14T08:41:11;4.10;;;2.40;;
77814;SDS011;67002;52.124;21.210;2023-03-14T08:43:43;4.00;;;2.60;;
77814;SDS011;67002;52.124;21.210;2023-03-14T08:46:14;3.50;;;2.30;;
77814;SDS011;67002;52.124;21.210;2023-03-14T08:48:46;3.40;;;2.10;;
77814;SDS011;67002;52.124;21.210;2023-03-14T08:51:18;5.00;;;2.80;;
77814;SDS011;67002;52.124;21.210;2023-03-14T08:53:50;4.60;;;2.50;;
77814;SDS011;67002;52.124;21.210;2023-03-14T08:56:21;3.80;;;1.80;;
77814;SDS011;67002;52.124;21.210;2023-03-14T08:58:54;4.10;;;2.40;;
77814;SDS011;67002;52.124;21.210;2023-03-14T09:01:25;4.10;;;2.30;;
77814;SDS011;67002;52.124;21.210;2023-03-14T09:03:57;5.00;;;3.00;;
77814;SDS011;67002;52.124;21.210;2023-03-14T09:06:29;3.70;;;2.10;;
77814;SDS011;67002;52.124;21.210;2023-03-14T09:09:01;3.50;;;2.30;;
77814;SDS011;67002;52.124;21.210;2023-03-14T09:11:33;4.60;;;2.50;;
77814;SDS011;67002;52.124;21.210;2023-03-14T09:14:05;3.70;;;2.60;;
77814;SDS011;67002;52.124;21.210;2023-03-14T09:16:36;3.00;;;2.00;;
77814;SDS011;67002;52.124;21.210;2023-03-14T09:19:08;3.60;;;2.10;;
77814;SDS011;67002;52.124;21.210;2023-03-14T09:21:40;3.80;;;2.40;;
77814;SDS011;67002;52.124;21.210;2023-03-14T09:24:11;3.40;;;2.30;;
77814;SDS011;67002;52.124;21.210;2023-03-14T09:26:43;4.20;;;2.30;;
77814;SDS011;67002;52.124;21.210;2023-03-14T09:29:15;4.40;;;1.70;;
77814;SDS011;67002;52.124;21.210;2023-03-14T09:31:47;3.80;;;2.30;;
77814;SDS011;67002;52.124;21.210;2023-03-14T09:34:19;3.50;;;2.50;;
77814;SDS011;67002;52.124;21.210;2023-03-14T09:36:51;4.40;;;2.20;;
77814;SDS011;67002;52.124;21.210;2023-03-14T09:39:23;3.70;;;2.30;;
77814;SDS011;67002;52.124;21.210;2023-03-14T09:41:55;3.30;;;2.10;;
77814;SDS011;67002;52.124;21.210;2023-03-14T09:44:29;3.50;;;1.90;;
77814;SDS011;67002;52.124;21.210;2023-03-14T09:47:05;2.80;;;2.10;;
77814;SDS011;67002;52.124;21.210;2023-03-14T09:49:40;3.90;;;2.20;;
77814;SDS011;67002;52.124;21.210;2023-03-14T09:52:13;3.10;;;2.10;;
77814;SDS011;67002;52.124;21.210;2023-03-14T09:54:49;4.90;;;2.20;;
77814;SDS011;67002;52.124;21.210;2023-03-14T09:57:23;4.00;;;1.90;;
77814;SDS011;67002;52.124;21.210;2023-03-14T09:59:56;2.80;;;2.10;;
77814;SDS011;67002;52.124;21.210;2023-03-14T10:02:35;2.60;;;1.70;;
77814;SDS011;67002;52.124;21.210;2023-03-14T10:05:13;3.40;;;1.90;;
77814;SDS011;67002;52.124;21.210;2023-03-14T10:07:47;2.90;;;1.90;;
77814;SDS011;67002;52.124;21.210;2023-03-14T10:10:19;4.80;;;2.10;;
77814;SDS011;67002;52.124;21.210;2023-03-14T10:12:56;4.20;;;2.20;;
77814;SDS011;67002;52.124;21.210;2023-03-14T10:15:29;3.50;;;2.20;;
77814;SDS011;67002;52.124;21.210;2023-03-14T10:18:02;4.40;;;2.40;;
77814;SDS011;67002;52.124;21.210;2023-03-14T10:20:41;3.70;;;2.40;;
77814;SDS011;67002;52.124;21.210;2023-03-14T10:23:22;3.40;;;2.30;;
77814;SDS011;67002;52.124;21.210;2023-03-14T10:26:01;4.40;;;2.00;;
77814;SDS011;67002;52.124;21.210;2023-03-14T10:28:37;3.70;;;2.20;;
77814;SDS011;67002;52.124;21.210;2023-03-14T10:31:10;3.20;;;2.40;;
77814;SDS011;67002;52.124;21.210;2023-03-14T10:33:42;5.20;;;2.30;;
77814;SDS011;67002;52.124;21.210;2023-03-14T10:36:29;4.30;;;2.60;;
77814;SDS011;67002;52.124;21.210;2023-03-14T10:39:15;3.80;;;2.10;;
77814;SDS011;67002;52.124;21.210;2023-03-14T10:41:55;2.90;;;1.60;;
77814;SDS011;67002;52.124;21.210;2023-03-14T10:44:34;4.70;;;2.40;;
77814;SDS011;67002;52.124;21.210;2023-03-14T10:47:12;2.80;;;2.00;;
77814;SDS011;67002;52.124;21.210;2023-03-14T10:49:49;4.10;;;2.20;;
77814;SDS011;67002;52.124;21.210;2023-03-14T10:52:22;2.90;;;2.00;;
77814;SDS011;67002;52.124;21.210;2023-03-14T10:55:10;4.70;;;2.10;;
77814;SDS011;67002;52.124;21.210;2023-03-14T10:57:42;3.00;;;1.70;;
77814;SDS011;67002;52.124;21.210;2023-03-14T11:00:16;3.10;;;1.90;;
77814;SDS011;67002;52.124;21.210;2023-03-14T11:02:52;3.20;;;2.10;;
77814;SDS011;67002;52.124;21.210;2023-03-14T11:05:33;3.70;;;2.00;;
77814;SDS011;67002;52.124;21.210;2023-03-14T11:08:09;3.80;;;2.20;;
77814;SDS011;67002;52.124;21.210;2023-03-14T11:10:44;2.80;;;1.90;;
77814;SDS011;67002;52.124;21.210;2023-03-14T11:13:20;2.40;;;1.80;;
77814;SDS011;67002;52.124;21.210;2023-03-14T11:16:00;2.10;;;1.50;;
77814;SDS011;67002;52.124;21.210;2023-03-14T11:21:24;4.10;;;2.20;;
77814;SDS011;67002;52.124;21.210;2023-03-14T11:24:06;2.90;;;2.00;;
77814;SDS011;67002;52.124;21.210;2023-03-14T11:26:46;3.40;;;2.10;;
77814;SDS011;67002;52.124;21.210;2023-03-14T11:29:22;5.10;;;2.40;;
77814;SDS011;67002;52.124;21.210;2023-03-14T11:31:57;2.50;;;1.70;;
77814;SDS011;67002;52.124;21.210;2023-03-14T11:34:33;3.10;;;2.20;;
77814;SDS011;67002;52.124;21.210;2023-03-14T11:37:11;3.40;;;2.00;;
77814;SDS011;67002;52.124;21.210;2023-03-14T11:39:49;5.50;;;1.90;;
77814;SDS011;67002;52.124;21.210;2023-03-14T11:42:26;3.20;;;2.20;;
77814;SDS011;67002;52.124;21.210;2023-03-14T11:44:58;3.10;;;2.10;;
77814;SDS011;67002;52.124;21.210;2023-03-14T11:47:31;2.70;;;1.90;;
77814;SDS011;67002;52.124;21.210;2023-03-14T11:50:05;2.50;;;1.80;;
77814;SDS011;67002;52.124;21.210;2023-03-14T11:52:44;3.70;;;2.10;;
77814;SDS011;67002;52.124;21.210;2023-03-14T11:55:19;3.20;;;2.30;;
77814;SDS011;67002;52.124;21.210;2023-03-14T11:57:55;2.90;;;1.90;;
77814;SDS011;67002;52.124;21.210;2023-03-14T12:00:28;2.90;;;2.00;;
77814;SDS011;67002;52.124;21.210;2023-03-14T12:03:02;3.40;;;1.90;;
77814;SDS011;67002;52.124;21.210;2023-03-14T12:05:42;4.00;;;2.20;;
77814;SDS011;67002;52.124;21.210;2023-03-14T12:08:25;4.90;;;2.00;;
77814;SDS011;67002;52.124;21.210;2023-03-14T12:11:09;4.70;;;1.70;;
77814;SDS011;67002;52.124;21.210;2023-03-14T12:13:45;3.00;;;1.90;;
77814;SDS011;67002;52.124;21.210;2023-03-14T12:16:30;3.10;;;2.10;;
77814;SDS011;67002;52.124;21.210;2023-03-14T12:24:59;2.60;;;1.80;;
77814;SDS011;67002;52.124;21.210;2023-03-14T12:27:42;3.70;;;2.00;;
77814;SDS011;67002;52.124;21.210;2023-03-14T12:30:26;3.00;;;2.20;;
77814;SDS011;67002;52.124;21.210;2023-03-14T12:36:04;3.50;;;2.10;;
77814;SDS011;67002;52.124;21.210;2023-03-14T12:41:42;4.20;;;2.30;;
77814;SDS011;67002;52.124;21.210;2023-03-14T12:50:31;4.10;;;2.30;;
77814;SDS011;67002;52.124;21.210;2023-03-14T12:58:43;3.10;;;2.10;;
77814;SDS011;67002;52.124;21.210;2023-03-14T13:01:18;4.90;;;2.40;;
77814;SDS011;67002;52.124;21.210;2023-03-14T13:03:51;3.20;;;2.10;;
77814;SDS011;67002;52.124;21.210;2023-03-14T13:12:29;3.50;;;2.30;;
77814;SDS011;67002;52.124;21.210;2023-03-14T13:15:11;3.60;;;2.30;;
77814;SDS011;67002;52.124;21.210;2023-03-14T13:17:47;4.50;;;2.70;;
77814;SDS011;67002;52.124;21.210;2023-03-14T13:20:21;3.90;;;2.50;;
77814;SDS011;67002;52.124;21.210;2023-03-14T13:22:54;4.50;;;2.40;;
77814;SDS011;67002;52.124;21.210;2023-03-14T13:25:30;3.30;;;2.10;;
77814;SDS011;67002;52.124;21.210;2023-03-14T13:28:04;3.50;;;2.10;;
77814;SDS011;67002;52.124;21.210;2023-03-14T13:30:40;3.10;;;2.30;;
77814;SDS011;67002;52.124;21.210;2023-03-14T13:33:14;4.10;;;2.60;;
77814;SDS011;67002;52.124;21.210;2023-03-14T13:35:47;3.40;;;2.40;;
77814;SDS011;67002;52.124;21.210;2023-03-14T13:40:51;3.70;;;2.50;;
77814;SDS011;67002;52.124;21.210;2023-03-14T13:43:29;3.50;;;2.70;;
77814;SDS011;67002;52.124;21.210;2023-03-14T13:46:03;3.20;;;2.20;;
77814;SDS011;67002;52.124;21.210;2023-03-14T13:48:39;2.90;;;2.00;;
77814;SDS011;67002;52.124;21.210;2023-03-14T13:51:13;4.40;;;2.70;;
77814;SDS011;67002;52.124;21.210;2023-03-14T13:53:47;3.40;;;2.10;;
77814;SDS011;67002;52.124;21.210;2023-03-14T13:56:20;3.60;;;2.10;;
77814;SDS011;67002;52.124;21.210;2023-03-14T13:58:53;5.50;;;2.90;;
77814;SDS011;67002;52.124;21.210;2023-03-14T14:01:25;3.30;;;2.40;;
77814;SDS011;67002;52.124;21.210;2023-03-14T14:04:02;5.20;;;2.50;;
77814;SDS011;67002;52.124;21.210;2023-03-14T14:06:37;3.50;;;2.10;;
77814;SDS011;67002;52.124;21.210;2023-03-14T14:09:17;3.70;;;2.50;;
77814;SDS011;67002;52.124;21.210;2023-03-14T14:11:53;4.20;;;2.60;;
77814;SDS011;67002;52.124;21.210;2023-03-14T14:14:44;4.30;;;2.90;;
77814;SDS011;67002;52.124;21.210;2023-03-14T14:17:19;3.50;;;2.50;;
77814;SDS011;67002;52.124;21.210;2023-03-14T14:19:53;3.10;;;2.30;;
77814;SDS011;67002;52.124;21.210;2023-03-14T14:22:26;3.60;;;2.40;;
77814;SDS011;67002;52.124;21.210;2023-03-14T14:24:58;2.80;;;2.20;;
77814;SDS011;67002;52.124;21.210;2023-03-14T14:27:33;3.20;;;2.30;;
77814;SDS011;67002;52.124;21.210;2023-03-14T14:30:24;4.00;;;2.50;;
77814;SDS011;67002;52.124;21.210;2023-03-14T14:33:12;3.70;;;2.10;;
77814;SDS011;67002;52.124;21.210;2023-03-14T14:35:53;3.80;;;2.10;;
77814;SDS011;67002;52.124;21.210;2023-03-14T14:38:26;3.00;;;2.50;;
77814;SDS011;67002;52.124;21.210;2023-03-14T14:41:00;3.60;;;2.20;;
77814;SDS011;67002;52.124;21.210;2023-03-14T14:43:34;3.20;;;2.10;;
77814;SDS011;67002;52.124;21.210;2023-03-14T14:46:09;3.50;;;2.40;;
77814;SDS011;67002;52.124;21.210;2023-03-14T14:48:43;4.00;;;2.20;;
77814;SDS011;67002;52.124;21.210;2023-03-14T14:51:25;3.00;;;2.20;;
77814;SDS011;67002;52.124;21.210;2023-03-14T14:54:09;3.90;;;2.40;;
77814;SDS011;67002;52.124;21.210;2023-03-14T14:59:25;3.80;;;2.50;;
77814;SDS011;67002;52.124;21.210;2023-03-14T15:01:58;4.10;;;2.80;;
77814;SDS011;67002;52.124;21.210;2023-03-14T15:04:31;4.60;;;2.70;;
77814;SDS011;67002;52.124;21.210;2023-03-14T15:07:03;3.30;;;2.40;;
77814;SDS011;67002;52.124;21.210;2023-03-14T15:09:35;3.60;;;2.50;;
77814;SDS011;67002;52.124;21.210;2023-03-14T15:12:06;3.10;;;2.20;;
77814;SDS011;67002;52.124;21.210;2023-03-14T15:14:38;3.20;;;2.40;;
77814;SDS011;67002;52.124;21.210;2023-03-14T15:17:10;4.70;;;2.50;;
77814;SDS011;67002;52.124;21.210;2023-03-14T15:19:43;4.00;;;2.70;;
77814;SDS011;67002;52.124;21.210;2023-03-14T15:22:14;3.80;;;2.70;;
77814;SDS011;67002;52.124;21.210;2023-03-14T15:24:46;3.50;;;2.60;;
77814;SDS011;67002;52.124;21.210;2023-03-14T15:27:18;5.30;;;3.20;;
77814;SDS011;67002;52.124;21.210;2023-03-14T15:29:50;3.50;;;2.50;;
77814;SDS011;67002;52.124;21.210;2023-03-14T15:32:21;3.40;;;2.60;;
77814;SDS011;67002;52.124;21.210;2023-03-14T15:34:53;5.20;;;3.10;;
77814;SDS011;67002;52.124;21.210;2023-03-14T15:37:26;4.10;;;3.30;;
77814;SDS011;67002;52.124;21.210;2023-03-14T15:39:57;4.20;;;3.00;;
77814;SDS011;67002;52.124;21.210;2023-03-14T15:42:31;4.00;;;2.80;;
77814;SDS011;67002;52.124;21.210;2023-03-14T15:45:03;3.50;;;2.80;;
77814;SDS011;67002;52.124;21.210;2023-03-14T15:47:36;3.60;;;2.80;;
77814;SDS011;67002;52.124;21.210;2023-03-14T15:50:09;4.00;;;2.80;;
77814;SDS011;67002;52.124;21.210;2023-03-14T15:52:41;3.90;;;2.80;;
77814;SDS011;67002;52.124;21.210;2023-03-14T15:55:13;3.70;;;2.60;;
77814;SDS011;67002;52.124;21.210;2023-03-14T15:57:45;5.00;;;3.10;;
77814;SDS011;67002;52.124;21.210;2023-03-14T16:00:18;4.20;;;2.90;;
77814;SDS011;67002;52.124;21.210;2023-03-14T16:02:51;4.60;;;2.70;;